In Rescue
 
Open Full Screen Window  High Contrast Mode
Wind Gusting 00 knots
05
May 25, 2022 10:04 PM EDT
Weather Information
Wind Direction
  220 °
Wind Speed
  05 kt (6 mph)
Wind Gust
  00 kt (0 mph)
Altimeter
30.28 in
Visibility
10 SM
Temperature
12° C
54° F
Dewpoint
10° C
50° F
Humidity
88%
Sky Condition
Clear
VFR

METAR KEFK 260204Z AUTO 22005KT 10SM CLR 12/10 A3028 RMK AO2 T01200099

FAA Disclaimer: The data displayed is for advisory purposes only and is not to be used for flight planning or operations.